createdAt,value
2019-01-22T00:01:53.199Z,99.90
2019-01-22T00:04:43.328Z,99.90
2019-01-22T00:07:33.512Z,99.90
2019-01-22T00:10:23.452Z,99.90
2019-01-22T00:13:14.251Z,99.90
2019-01-22T00:16:05.171Z,99.90
2019-01-22T00:18:55.296Z,99.90
2019-01-22T00:21:45.231Z,99.90
2019-01-22T00:24:35.319Z,99.90
2019-01-22T00:27:25.171Z,99.90
2019-01-22T00:30:16.972Z,99.90
2019-01-22T00:33:06.458Z,99.90
2019-01-22T00:35:56.478Z,99.90
2019-01-22T00:38:46.621Z,99.90
2019-01-22T00:41:36.639Z,99.90
2019-01-22T00:44:26.723Z,99.90
2019-01-22T00:47:16.822Z,99.90
2019-01-22T00:50:08.389Z,99.90
2019-01-22T00:52:58.432Z,99.90
2019-01-22T00:55:48.665Z,99.90
2019-01-22T00:58:38.969Z,99.90
2019-01-22T01:01:29.118Z,99.90
2019-01-22T01:04:19.139Z,99.90
2019-01-22T01:07:08.937Z,99.90
2019-01-22T01:09:58.751Z,99.90
2019-01-22T01:12:48.931Z,99.90
2019-01-22T01:15:39.001Z,99.90
2019-01-22T01:18:29.008Z,99.90
2019-01-22T01:21:18.958Z,99.90
2019-01-22T01:24:08.785Z,99.90
2019-01-22T01:26:58.951Z,99.90
2019-01-22T01:29:49.272Z,99.90
2019-01-22T01:32:39.132Z,99.90
2019-01-22T01:35:29.391Z,99.90
2019-01-22T01:38:19.321Z,99.90
2019-01-22T01:41:09.355Z,99.90
2019-01-22T01:43:59.492Z,99.90
2019-01-22T01:46:49.548Z,99.90
2019-01-22T01:49:39.661Z,99.90
2019-01-22T01:52:29.733Z,99.90
2019-01-22T01:55:19.991Z,99.90
2019-01-22T01:58:09.918Z,99.90
2019-01-22T02:00:59.772Z,99.90
2019-01-22T02:03:49.794Z,99.90
2019-01-22T02:06:39.942Z,99.90
2019-01-22T02:09:30.039Z,99.90
2019-01-22T02:12:24.222Z,99.90
2019-01-22T02:15:19.902Z,99.90
2019-01-22T02:18:37.949Z,99.90
2019-01-22T02:21:50.709Z,99.90
2019-01-22T02:25:05.739Z,99.90
2019-01-22T02:28:40.340Z,99.90
2019-01-22T02:32:07.080Z,99.90
2019-01-22T02:35:25.049Z,99.90
2019-01-22T02:38:32.701Z,99.90
2019-01-22T02:41:33.332Z,99.90
2019-01-22T02:45:23.070Z,99.90
2019-01-22T02:48:38.659Z,99.90
2019-01-22T02:51:57.411Z,99.90
2019-01-22T02:55:08.518Z,99.90
2019-01-22T02:58:36.055Z,99.90
2019-01-22T03:01:57.478Z,99.90
2019-01-22T03:05:19.691Z,99.90
2019-01-22T03:08:45.919Z,99.90
2019-01-22T03:12:34.917Z,99.90
2019-01-22T03:15:56.849Z,99.90
2019-01-22T03:19:23.596Z,99.90
2019-01-22T03:22:46.757Z,99.90
2019-01-22T03:26:08.241Z,99.90
2019-01-22T03:29:38.505Z,99.90
2019-01-22T03:32:45.361Z,99.90
2019-01-22T03:36:08.038Z,99.90
2019-01-22T03:39:32.023Z,99.90
2019-01-22T03:43:10.542Z,99.90
2019-01-22T03:46:31.321Z,99.90
2019-01-22T03:49:32.328Z,99.90
2019-01-22T03:53:03.324Z,99.90
2019-01-22T03:56:05.762Z,99.90
2019-01-22T03:58:55.573Z,99.90
2019-01-22T04:01:45.784Z,99.90
2019-01-22T04:04:35.832Z,99.90
2019-01-22T04:07:25.650Z,99.90
2019-01-22T04:10:23.750Z,99.90
2019-01-22T04:13:13.539Z,99.90
2019-01-22T04:16:03.282Z,99.90
2019-01-22T04:18:53.293Z,99.90
2019-01-22T04:21:45.003Z,99.90
2019-01-22T04:24:51.354Z,99.90
2019-01-22T04:28:11.956Z,99.90
2019-01-22T04:31:12.283Z,99.90
2019-01-22T04:34:32.108Z,99.90
2019-01-22T04:37:47.345Z,99.90
2019-01-22T04:41:04.462Z,99.90
2019-01-22T04:44:17.161Z,99.90
2019-01-22T04:47:41.775Z,99.90
2019-01-22T04:50:44.123Z,99.90
2019-01-22T04:53:56.191Z,99.90
2019-01-22T04:57:26.688Z,99.90
2019-01-22T05:01:05.106Z,99.90
2019-01-22T05:04:28.113Z,99.90
2019-01-22T05:07:49.530Z,99.90
2019-01-22T05:11:06.519Z,99.90
2019-01-22T05:14:13.659Z,99.90
2019-01-22T05:17:28.934Z,99.90
2019-01-22T05:20:36.900Z,99.90
2019-01-22T05:24:17.647Z,99.90
2019-01-22T05:27:34.879Z,99.90
2019-01-22T05:31:15.133Z,99.90
2019-01-22T05:34:46.362Z,99.90
2019-01-22T05:38:23.061Z,99.90
2019-01-22T05:41:29.810Z,99.90
2019-01-22T05:44:36.442Z,99.90
2019-01-22T05:48:18.620Z,99.90
2019-01-22T05:51:40.450Z,99.90
2019-01-22T05:54:56.974Z,99.90
2019-01-22T05:58:19.649Z,99.90
2019-01-22T06:01:26.353Z,99.90
2019-01-22T06:05:02.961Z,99.90
2019-01-22T06:08:20.903Z,99.90
2019-01-22T06:11:46.213Z,99.90
2019-01-22T06:15:03.054Z,99.90
2019-01-22T06:18:22.820Z,99.90
2019-01-22T06:21:59.282Z,99.90
2019-01-22T06:25:02.265Z,99.90
2019-01-22T06:28:32.983Z,99.90
2019-01-22T06:31:55.759Z,99.90
2019-01-22T06:35:27.010Z,99.90
2019-01-22T06:38:51.493Z,99.90
2019-01-22T06:42:18.349Z,99.90
2019-01-22T06:45:51.760Z,99.90
2019-01-22T06:49:24.750Z,99.90
2019-01-22T06:52:35.919Z,99.90
2019-01-22T06:56:12.402Z,99.90
2019-01-22T06:59:27.382Z,99.90
2019-01-22T07:02:46.753Z,99.90
2019-01-22T07:06:29.465Z,99.90
2019-01-22T07:09:43.923Z,99.90
2019-01-22T07:13:14.021Z,99.90
2019-01-22T07:16:39.242Z,99.90
2019-01-22T07:20:01.093Z,99.90
2019-01-22T07:23:10.351Z,99.90
2019-01-22T07:26:32.871Z,99.90
2019-01-22T07:30:25.854Z,99.90
2019-01-22T07:33:49.828Z,99.90
2019-01-22T07:37:06.533Z,99.90
2019-01-22T07:40:43.444Z,99.90
2019-01-22T07:44:08.286Z,99.90
2019-01-22T07:47:35.050Z,99.90
2019-01-22T07:51:14.421Z,99.90
2019-01-22T07:54:42.170Z,99.90
2019-01-22T07:58:25.095Z,99.90
2019-01-22T08:01:42.998Z,99.90
2019-01-22T08:05:07.837Z,99.90
2019-01-22T08:08:33.452Z,99.90
2019-01-22T08:12:01.163Z,99.90
2019-01-22T08:15:02.341Z,99.90
2019-01-22T08:18:17.237Z,99.90
2019-01-22T08:21:52.991Z,99.90
2019-01-22T08:25:20.253Z,99.90
2019-01-22T08:28:44.521Z,99.90
2019-01-22T08:32:06.202Z,99.90
2019-01-22T08:35:33.016Z,99.90
2019-01-22T08:38:59.499Z,99.90
2019-01-22T08:42:33.089Z,99.90
2019-01-22T08:45:49.662Z,99.90
2019-01-22T08:49:07.300Z,99.90
2019-01-22T08:52:32.713Z,99.90
2019-01-22T08:55:54.854Z,99.90
2019-01-22T08:59:34.384Z,99.90
2019-01-22T09:03:05.562Z,99.90
2019-01-22T09:06:23.149Z,99.90
2019-01-22T09:09:53.288Z,99.90
2019-01-22T09:13:20.150Z,99.90
2019-01-22T09:16:51.714Z,99.90
2019-01-22T09:20:20.902Z,99.90
2019-01-22T09:24:10.294Z,99.90
2019-01-22T09:27:20.911Z,99.90
2019-01-22T09:30:41.852Z,99.90
2019-01-22T09:34:25.105Z,99.90
2019-01-22T09:37:21.006Z,1.10
2019-01-22T09:40:11.561Z,1.00
2019-01-22T09:43:01.418Z,99.90
2019-01-22T09:45:51.319Z,1.00
2019-01-22T09:48:40.859Z,1.00
2019-01-22T09:51:30.822Z,1.00
2019-01-22T09:54:20.739Z,1.00
2019-01-22T09:57:10.699Z,1.00
2019-01-22T10:00:00.390Z,99.90
2019-01-22T10:02:50.362Z,14.30
2019-01-22T10:05:40.259Z,1.00
2019-01-22T10:08:30.061Z,99.90
2019-01-22T10:11:19.962Z,99.90
2019-01-22T10:14:10.219Z,13.00
2019-01-22T10:17:00.471Z,1.00
2019-01-22T10:19:51.290Z,1.00
2019-01-22T10:22:41.472Z,99.90
2019-01-22T10:25:31.179Z,99.90
2019-01-22T10:28:20.884Z,1.00
2019-01-22T10:31:10.950Z,1.00
2019-01-22T10:34:01.139Z,1.00
2019-01-22T10:36:50.719Z,1.00
2019-01-22T10:39:40.551Z,1.00
2019-01-22T10:42:30.715Z,99.90
2019-01-22T10:45:21.290Z,99.90
2019-01-22T10:48:11.147Z,51.00
2019-01-22T10:51:01.140Z,15.50
2019-01-22T10:53:51.035Z,1.00
2019-01-22T10:56:40.912Z,1.00
2019-01-22T10:59:30.899Z,1.00
2019-01-22T11:02:39.562Z,1.00
2019-01-22T11:05:34.511Z,1.00
2019-01-22T11:08:24.782Z,1.00
2019-01-22T11:11:14.889Z,1.00
2019-01-22T11:14:04.779Z,99.90
2019-01-22T11:16:54.748Z,99.90
2019-01-22T11:19:44.664Z,99.90
2019-01-22T11:22:34.501Z,99.90
2019-01-22T11:25:27.820Z,99.90
2019-01-22T11:28:17.749Z,99.90
2019-01-22T11:31:07.659Z,99.90
2019-01-22T11:33:57.618Z,99.90
2019-01-22T11:36:47.322Z,99.90
2019-01-22T11:39:37.089Z,98.20
2019-01-22T11:42:27.094Z,99.90
2019-01-22T11:45:17.091Z,99.90
2019-01-22T11:48:09.839Z,99.90
2019-01-22T11:50:59.598Z,99.90
2019-01-22T11:53:49.811Z,75.10
2019-01-22T11:56:39.501Z,67.90
2019-01-22T11:59:29.241Z,1.00
2019-01-22T12:02:18.843Z,1.00
2019-01-22T12:05:08.659Z,1.00
2019-01-22T12:07:58.581Z,1.00
2019-01-22T12:10:48.521Z,1.00
2019-01-22T12:13:38.321Z,1.00
2019-01-22T12:16:28.099Z,1.00
2019-01-22T12:19:18.103Z,1.00
2019-01-22T12:22:07.861Z,1.00
2019-01-22T12:24:58.183Z,1.00
2019-01-22T12:27:48.437Z,1.00
2019-01-22T12:30:39.434Z,1.00
2019-01-22T12:33:29.746Z,1.00
2019-01-22T12:36:20.244Z,1.00
2019-01-22T12:39:11.394Z,1.00
2019-01-22T12:42:01.257Z,1.00
2019-01-22T12:44:51.474Z,1.00
2019-01-22T12:47:43.753Z,1.00
2019-01-22T12:50:37.329Z,1.00
2019-01-22T12:53:28.351Z,1.00
2019-01-22T12:56:18.601Z,1.00
2019-01-22T12:59:08.612Z,1.00
2019-01-22T13:02:00.071Z,1.00
2019-01-22T13:04:50.591Z,1.00
2019-01-22T13:07:40.861Z,1.00
2019-01-22T13:10:31.531Z,1.00
2019-01-22T13:13:22.779Z,1.00
2019-01-22T13:16:13.150Z,1.00
2019-01-22T13:19:03.261Z,1.00
2019-01-22T13:21:53.980Z,1.00
2019-01-22T13:24:44.321Z,1.00
2019-01-22T13:27:36.221Z,1.00
2019-01-22T13:30:26.951Z,1.00
2019-01-22T13:33:29.605Z,1.00
2019-01-22T13:36:25.241Z,1.00
2019-01-22T13:39:15.859Z,1.00
2019-01-22T13:42:05.809Z,1.00
2019-01-22T13:44:57.562Z,1.00
2019-01-22T13:47:46.827Z,1.00
2019-01-22T13:50:36.850Z,1.00
2019-01-22T13:53:26.457Z,1.00
2019-01-22T13:56:18.796Z,1.00
2019-01-22T13:59:07.971Z,1.00
2019-01-22T14:01:57.824Z,1.00
2019-01-22T14:04:47.941Z,1.00
2019-01-22T14:07:37.938Z,1.00
2019-01-22T14:10:29.137Z,1.00
2019-01-22T14:13:21.495Z,1.00
2019-01-22T14:16:11.678Z,1.00
2019-01-22T14:19:01.888Z,1.00
2019-01-22T14:21:53.139Z,1.00
2019-01-22T14:24:42.670Z,1.00
2019-01-22T14:27:34.279Z,1.00
2019-01-22T14:30:28.222Z,1.00
2019-01-22T14:33:17.992Z,1.00
2019-01-22T14:36:08.527Z,1.00
2019-01-22T14:38:58.640Z,1.00
2019-01-22T14:41:48.522Z,1.00
2019-01-22T14:44:40.317Z,1.00
2019-01-22T14:47:33.251Z,1.00
2019-01-22T14:50:26.649Z,1.00
2019-01-22T14:53:33.222Z,1.00
2019-01-22T14:56:20.671Z,1.00
2019-01-22T14:59:12.497Z,1.00
2019-01-22T15:02:02.600Z,1.00
2019-01-22T15:04:55.592Z,1.00
2019-01-22T15:07:46.810Z,1.00
2019-01-22T15:10:36.918Z,1.00
2019-01-22T15:13:28.108Z,1.00
2019-01-22T15:16:18.883Z,1.00
2019-01-22T15:19:09.461Z,1.00
2019-01-22T15:21:59.955Z,1.00
2019-01-22T15:24:52.819Z,1.00
2019-01-22T15:27:43.680Z,1.00
2019-01-22T15:30:36.557Z,1.00
2019-01-22T15:33:27.393Z,1.00
2019-01-22T15:36:24.690Z,1.00
2019-01-22T15:39:16.282Z,1.00
2019-01-22T15:42:11.380Z,1.00
2019-01-22T15:45:06.424Z,1.00
2019-01-22T15:47:56.517Z,1.00
2019-01-22T15:50:55.459Z,1.00
2019-01-22T15:53:41.574Z,1.00
2019-01-22T15:56:32.587Z,1.00
2019-01-22T15:59:22.611Z,1.00
2019-01-22T16:02:13.295Z,1.00
2019-01-22T16:05:03.964Z,1.00
2019-01-22T16:07:54.049Z,1.00
2019-01-22T16:10:44.138Z,1.00
2019-01-22T16:13:34.561Z,1.00
2019-01-22T16:16:26.050Z,1.00
2019-01-22T16:19:16.168Z,1.00
2019-01-22T16:22:06.342Z,1.00
2019-01-22T16:24:57.103Z,1.00
2019-01-22T16:27:47.342Z,1.00
2019-01-22T16:30:40.374Z,1.00
2019-01-22T16:33:31.274Z,1.00
2019-01-22T16:36:21.835Z,1.00
2019-01-22T16:39:13.057Z,1.00
2019-01-22T16:42:03.407Z,1.00
2019-01-22T16:44:54.233Z,1.00
2019-01-22T16:47:44.968Z,1.00
2019-01-22T16:50:37.959Z,1.00
2019-01-22T16:53:28.554Z,1.00
2019-01-22T16:56:19.590Z,1.00
2019-01-22T16:59:09.852Z,1.00
2019-01-22T17:01:59.759Z,1.00
2019-01-22T17:04:49.861Z,1.00
2019-01-22T17:07:39.567Z,1.00
2019-01-22T17:10:31.101Z,1.00
2019-01-22T17:13:21.495Z,1.00
2019-01-22T17:16:11.178Z,1.00
2019-01-22T17:19:00.956Z,1.00
2019-01-22T17:21:52.010Z,1.00
2019-01-22T17:24:41.893Z,1.00
2019-01-22T17:27:32.092Z,1.00
2019-01-22T17:30:22.776Z,1.00
2019-01-22T17:33:31.166Z,1.00
2019-01-22T17:36:21.258Z,1.00
2019-01-22T17:39:11.427Z,1.00
2019-01-22T17:42:01.681Z,1.00
2019-01-22T17:44:51.632Z,1.00
2019-01-22T17:47:41.441Z,1.00
2019-01-22T17:50:31.479Z,1.00
2019-01-22T17:53:23.576Z,1.00
2019-01-22T17:56:13.826Z,1.00
2019-01-22T17:59:04.232Z,1.00
2019-01-22T18:01:53.907Z,1.00
2019-01-22T18:04:44.178Z,1.00
2019-01-22T18:07:35.203Z,1.00
2019-01-22T18:10:25.931Z,1.00
2019-01-22T18:13:16.261Z,1.00
2019-01-22T18:16:06.548Z,1.00
2019-01-22T18:18:56.988Z,1.00
2019-01-22T18:21:47.029Z,1.00
2019-01-22T18:24:37.070Z,1.00
2019-01-22T18:27:26.807Z,1.00
2019-01-22T18:30:18.890Z,1.00
2019-01-22T18:33:11.933Z,1.00
2019-01-22T18:36:02.294Z,1.00
2019-01-22T18:38:52.382Z,1.00
2019-01-22T18:41:42.667Z,1.00
2019-01-22T18:44:33.891Z,1.00
2019-01-22T18:47:23.600Z,1.00
2019-01-22T18:50:19.570Z,1.00
2019-01-22T18:53:09.809Z,1.00
2019-01-22T18:56:00.332Z,1.00
2019-01-22T18:58:50.157Z,1.00
2019-01-22T19:01:40.483Z,1.00
2019-01-22T19:04:30.521Z,1.00
2019-01-22T19:07:20.551Z,1.00
2019-01-22T19:10:15.091Z,1.00
2019-01-22T19:13:05.197Z,1.00
2019-01-22T19:15:54.970Z,1.00
2019-01-22T19:18:45.243Z,1.00
2019-01-22T19:21:35.615Z,1.00
2019-01-22T19:24:26.034Z,1.00
2019-01-22T19:27:16.097Z,1.00
2019-01-22T19:30:08.792Z,1.00
2019-01-22T19:32:58.480Z,1.00
2019-01-22T19:35:48.358Z,1.00
2019-01-22T19:38:38.417Z,1.00
2019-01-22T19:41:28.551Z,1.00
2019-01-22T19:44:19.032Z,1.00
2019-01-22T19:47:08.899Z,1.00
2019-01-22T19:49:59.128Z,1.00
2019-01-22T19:52:49.320Z,1.00
2019-01-22T19:55:39.323Z,1.00
2019-01-22T19:58:29.029Z,1.00
2019-01-22T20:01:19.562Z,1.00
2019-01-22T20:04:09.528Z,1.00
2019-01-22T20:06:59.440Z,1.00
2019-01-22T20:09:49.200Z,1.00
2019-01-22T20:12:38.978Z,1.00
2019-01-22T20:15:28.743Z,1.00
2019-01-22T20:18:19.682Z,1.00
2019-01-22T20:21:13.532Z,1.00
2019-01-22T20:24:03.536Z,1.00
2019-01-22T20:26:53.610Z,1.00
2019-01-22T20:29:43.268Z,1.00
2019-01-22T20:32:33.532Z,1.00
2019-01-22T20:35:23.143Z,1.00
2019-01-22T20:38:12.831Z,1.00
2019-01-22T20:41:02.832Z,1.00
2019-01-22T20:43:52.811Z,1.00
2019-01-22T20:46:42.468Z,1.00
2019-01-22T20:49:32.208Z,1.00
2019-01-22T20:52:22.044Z,1.00
2019-01-22T20:55:13.628Z,1.00
2019-01-22T20:58:03.849Z,1.00
2019-01-22T21:00:53.501Z,1.00
2019-01-22T21:03:43.419Z,1.00
2019-01-22T21:06:33.470Z,1.00
2019-01-22T21:09:35.520Z,1.00
2019-01-22T21:12:25.553Z,1.00
2019-01-22T21:15:15.986Z,1.00
2019-01-22T21:18:06.101Z,1.00
2019-01-22T21:20:56.204Z,1.00
2019-01-22T21:23:46.027Z,1.00
2019-01-22T21:26:35.806Z,1.00
2019-01-22T21:29:25.753Z,1.00
2019-01-22T21:32:15.942Z,1.00
2019-01-22T21:35:06.928Z,1.00
2019-01-22T21:37:56.857Z,1.00
2019-01-22T21:40:47.064Z,1.00
2019-01-22T21:43:36.793Z,1.00
2019-01-22T21:46:26.643Z,1.00
2019-01-22T21:49:16.562Z,1.00
2019-01-22T21:52:06.584Z,1.00
2019-01-22T21:54:56.553Z,1.00
2019-01-22T21:57:46.552Z,1.00
2019-01-22T22:00:36.304Z,1.00
2019-01-22T22:03:26.504Z,1.00
2019-01-22T22:06:16.597Z,1.00
2019-01-22T22:09:08.577Z,1.00
2019-01-22T22:11:59.003Z,1.00
2019-01-22T22:14:48.986Z,1.00
2019-01-22T22:17:38.773Z,1.00
2019-01-22T22:20:28.346Z,1.00
2019-01-22T22:23:18.454Z,1.00
2019-01-22T22:26:08.724Z,1.00
2019-01-22T22:28:59.435Z,1.00
2019-01-22T22:31:49.273Z,1.00
2019-01-22T22:34:39.703Z,1.00
2019-01-22T22:37:30.365Z,1.00
2019-01-22T22:40:20.196Z,1.00
2019-01-22T22:43:10.056Z,1.00
2019-01-22T22:46:18.314Z,1.00
2019-01-22T22:49:08.366Z,1.00
2019-01-22T22:51:59.316Z,1.00
2019-01-22T22:54:49.052Z,1.00
2019-01-22T22:57:39.056Z,1.00
2019-01-22T23:01:00.645Z,1.00
2019-01-22T23:03:50.669Z,1.00
2019-01-22T23:06:40.186Z,1.00
2019-01-22T23:09:30.372Z,1.00
2019-01-22T23:12:19.906Z,1.00
2019-01-22T23:15:10.296Z,1.00
2019-01-22T23:18:00.419Z,1.00
2019-01-22T23:20:50.846Z,1.00
2019-01-22T23:23:40.760Z,1.00
2019-01-22T23:26:31.682Z,1.00
2019-01-22T23:29:21.869Z,1.00
2019-01-22T23:32:14.005Z,1.00
2019-01-22T23:35:06.459Z,1.00
2019-01-22T23:37:58.041Z,1.00
2019-01-22T23:40:47.724Z,1.00
2019-01-22T23:43:37.813Z,1.00
2019-01-22T23:46:27.805Z,1.00
2019-01-22T23:49:18.043Z,1.00
2019-01-22T23:52:07.886Z,1.00
2019-01-22T23:54:58.363Z,1.00
2019-01-22T23:57:49.004Z,1.00
